Time;durP1;ratioP1;P1;durP2;ratioP2;P2;SDS_P1;SDS_P2;PMS_P1;PMS_P2;Temp;Humidity;BMP_temperature;BMP_pressure;BME280_temperature;BME280_humidity;BME280_pressure;Samples;Min_cycle;Max_cycle;Signal;HPM_P1;HPM_P2
2022/08/25 00:01:46;;;;;;;18.60;5.70;;;;;;;18.65;88.73;98685.49;106007;1277;22553;-68
2022/08/25 00:04:16;;;;;;;12.80;5.00;;;;;;;18.65;88.68;98688.75;105893;1277;25571;-69
2022/08/25 00:06:43;;;;;;;15.10;5.00;;;;;;;18.64;88.73;98688.64;105997;1274;22535;-68
2022/08/25 00:09:15;;;;;;;13.70;5.30;;;;;;;18.64;88.84;98687.10;105952;1274;22564;-68
2022/08/25 00:11:42;;;;;;;13.40;5.20;;;;;;;18.63;88.80;98684.68;106021;1274;23997;-68
2022/08/25 00:14:13;;;;;;;18.40;6.40;;;;;;;18.63;88.82;98681.05;105915;1275;23960;-68
2022/08/25 00:16:42;;;;;;;14.40;5.60;;;;;;;18.60;88.78;98678.92;105945;1274;26016;-70
2022/08/25 00:19:13;;;;;;;14.50;5.60;;;;;;;18.59;88.86;98679.27;106151;1274;22541;-68
2022/08/25 00:21:42;;;;;;;13.80;5.80;;;;;;;18.57;88.90;98682.10;105980;1274;22618;-69
2022/08/25 00:24:14;;;;;;;11.90;4.70;;;;;;;18.56;89.01;98683.05;105956;1274;22541;-68
2022/08/25 00:26:45;;;;;;;11.50;5.40;;;;;;;18.55;89.05;98688.30;105968;1274;22551;-70
2022/08/25 00:29:12;;;;;;;13.70;6.10;;;;;;;18.54;89.02;98693.06;106020;1274;22578;-68
2022/08/25 00:31:40;;;;;;;13.10;5.60;;;;;;;18.52;89.26;98685.23;105937;1274;22567;-69
2022/08/25 00:34:11;;;;;;;11.30;5.20;;;;;;;18.51;89.13;98687.28;105935;1275;22550;-71
2022/08/25 00:36:39;;;;;;;14.80;5.40;;;;;;;18.50;89.22;98686.59;105952;1274;22665;-68
2022/08/25 00:39:08;;;;;;;18.70;5.90;;;;;;;18.49;89.26;98680.69;105964;1274;24435;-68
2022/08/25 00:41:37;;;;;;;15.10;5.50;;;;;;;18.48;89.40;98681.02;105962;1274;22554;-69
2022/08/25 00:44:05;;;;;;;;;;;;;;;18.45;89.25;98679.41;106117;1274;22656;-68
2022/08/25 00:46:41;;;;;;;10.70;5.60;;;;;;;18.38;89.18;98679.20;106022;1274;25400;-68
2022/08/25 00:49:14;;;;;;;15.10;5.00;;;;;;;18.29;88.92;98678.41;106082;1274;25565;-70
2022/08/25 00:52:08;;;;;;;14.50;4.90;;;;;;;18.19;89.20;98676.52;105962;1274;22684;-71
2022/08/25 00:54:50;;;;;;;13.50;5.10;;;;;;;18.13;89.75;98677.29;105950;1275;22634;-68
2022/08/25 00:57:18;;;;;;;;;;;;;;;18.11;89.92;98672.90;105960;1274;22973;-68
2022/08/25 00:59:45;;;;;;;10.40;5.10;;;;;;;18.10;90.18;98674.89;105992;1274;25346;-68
2022/08/25 01:02:14;;;;;;;13.00;5.10;;;;;;;18.10;90.35;98674.95;105928;1274;22546;-69
2022/08/25 01:04:42;;;;;;;17.40;7.20;;;;;;;18.09;90.31;98675.98;106028;1274;25340;-70
2022/08/25 01:07:10;;;;;;;9.90;5.10;;;;;;;18.08;90.53;98676.67;105973;1274;22520;-69
2022/08/25 01:09:38;;;;;;;15.80;5.70;;;;;;;18.07;90.61;98674.09;105976;1274;25627;-69
2022/08/25 01:12:05;;;;;;;15.00;5.10;;;;;;;18.07;90.70;98676.58;105883;1274;24233;-69
2022/08/25 01:14:34;;;;;;;10.70;5.20;;;;;;;18.06;90.92;98677.40;105886;1274;22622;-68
2022/08/25 01:17:01;;;;;;;15.40;5.10;;;;;;;18.07;90.98;98679.88;105830;1277;25475;-69
2022/08/25 01:19:29;;;;;;;12.50;5.70;;;;;;;18.07;91.03;98678.88;105874;1274;24527;-69
2022/08/25 01:21:56;;;;;;;20.40;5.70;;;;;;;18.07;91.08;98673.69;105912;1274;24306;-69
2022/08/25 01:24:49;;;;;;;17.70;5.60;;;;;;;18.07;91.10;98674.20;105914;1274;25229;-70
2022/08/25 01:27:16;;;;;;;11.20;5.00;;;;;;;18.06;91.28;98673.55;105981;1274;24423;-69
2022/08/25 01:29:46;;;;;;;11.20;5.20;;;;;;;18.08;91.46;98673.30;105874;1272;22711;-69
2022/08/25 01:32:13;;;;;;;14.70;6.00;;;;;;;18.07;91.43;98670.39;105932;1274;23420;-69
2022/08/25 01:34:43;;;;;;;16.20;6.20;;;;;;;18.06;91.50;98665.99;105841;1277;30412;-69
2022/08/25 01:37:13;;;;;;;12.10;5.50;;;;;;;18.06;91.66;98663.24;105825;1277;24208;-69
2022/08/25 01:39:40;;;;;;;13.50;5.70;;;;;;;18.07;91.52;98662.80;105954;1277;25987;-69
2022/08/25 01:42:25;;;;;;;16.10;5.20;;;;;;;18.06;91.43;98660.27;105870;1274;22528;-69
2022/08/25 01:44:53;;;;;;;13.40;4.90;;;;;;;18.03;91.32;98656.82;105902;1274;30157;-69
2022/08/25 01:47:20;;;;;;;11.90;4.90;;;;;;;18.01;91.35;98648.27;105887;1274;22545;-69
2022/08/25 01:49:47;;;;;;;14.20;5.10;;;;;;;17.99;91.41;98647.09;105965;1274;25397;-69
2022/08/25 01:52:23;;;;;;;15.20;5.30;;;;;;;17.98;91.50;98646.22;105928;1274;25340;-69
2022/08/25 01:54:50;;;;;;;14.70;5.30;;;;;;;17.97;91.52;98644.73;105946;1275;25199;-69
2022/08/25 01:57:17;;;;;;;13.10;5.00;;;;;;;17.95;91.48;98638.04;105848;1274;23350;-69
2022/08/25 01:59:44;;;;;;;17.80;5.70;;;;;;;17.92;91.59;98637.17;105899;1274;22550;-69
2022/08/25 02:02:11;;;;;;;20.30;6.10;;;;;;;17.92;91.90;98637.52;105873;1274;24713;-69
2022/08/25 02:04:38;;;;;;;13.70;5.50;;;;;;;17.90;92.03;98636.83;105927;1274;22682;-69
2022/08/25 02:07:07;;;;;;;17.00;5.20;;;;;;;17.84;91.97;98633.98;105932;1274;24288;-69
2022/08/25 02:09:36;;;;;;;16.20;5.30;;;;;;;17.76;91.83;98633.52;105930;1274;23241;-69
2022/08/25 02:12:04;;;;;;;12.20;5.00;;;;;;;17.72;91.83;98631.64;105966;1274;22546;-69
2022/08/25 02:14:32;;;;;;;11.40;4.90;;;;;;;17.68;91.94;98629.91;105981;1277;22652;-69
2022/08/25 02:16:58;;;;;;;10.50;5.30;;;;;;;17.67;92.18;98629.70;105828;1277;22838;-69
2022/08/25 02:19:25;;;;;;;16.20;5.20;;;;;;;17.67;92.44;98629.10;105882;1277;22535;-69
2022/08/25 02:21:52;;;;;;;14.10;5.10;;;;;;;17.68;92.41;98629.15;105878;1277;22616;-69
2022/08/25 02:24:20;;;;;;;17.20;5.70;;;;;;;17.67;92.78;98625.89;105848;1275;25485;-69
2022/08/25 02:26:47;;;;;;;16.30;5.50;;;;;;;17.68;93.02;98624.56;105933;1274;22743;-68
2022/08/25 02:29:15;;;;;;;18.00;5.80;;;;;;;17.70;93.33;98623.79;106014;1274;22741;-68
2022/08/25 02:31:44;;;;;;;13.80;5.60;;;;;;;17.72;93.48;98622.27;106141;1274;22513;-68
2022/08/25 02:34:10;;;;;;;23.30;5.80;;;;;;;17.74;93.61;98625.23;105903;1274;24263;-68
2022/08/25 02:36:38;;;;;;;22.50;6.70;;;;;;;17.75;93.70;98621.75;105996;1274;22600;-68
2022/08/25 02:39:15;;;;;;;20.90;5.60;;;;;;;17.78;93.77;98621.02;105869;1275;24285;-68
2022/08/25 02:41:42;;;;;;;17.80;5.90;;;;;;;17.78;93.75;98621.95;105906;1274;22583;-68
2022/08/25 02:44:09;;;;;;;19.80;6.60;;;;;;;17.78;93.96;98616.34;105881;1274;25448;-68
2022/08/25 02:46:37;;;;;;;20.30;6.70;;;;;;;17.79;94.20;98618.69;105941;1274;25365;-68
2022/08/25 02:49:05;;;;;;;18.80;6.00;;;;;;;17.81;94.25;98619.40;105927;1274;25407;-68
2022/08/25 02:51:33;;;;;;;24.80;6.00;;;;;;;17.82;94.18;98627.59;106050;1274;22707;-68
2022/08/25 02:54:03;;;;;;;23.20;6.00;;;;;;;17.83;94.11;98626.25;105986;1274;22642;-69
2022/08/25 02:56:31;;;;;;;13.90;6.40;;;;;;;17.84;93.97;98626.36;105892;1274;31778;-68
2022/08/25 02:58:59;;;;;;;19.40;6.40;;;;;;;17.86;94.15;98624.06;106016;1274;25389;-68
2022/08/25 03:01:27;;;;;;;19.30;6.20;;;;;;;17.87;94.01;98621.58;105930;1274;25409;-68
2022/08/25 03:03:56;;;;;;;16.30;6.60;;;;;;;17.86;93.92;98620.88;106011;1274;25376;-68
2022/08/25 03:06:23;;;;;;;21.70;6.00;;;;;;;17.86;93.81;98618.16;105921;1274;24296;-68
2022/08/25 03:08:52;;;;;;;15.20;6.40;;;;;;;17.86;93.87;98616.29;105951;1274;22735;-68
2022/08/25 03:11:19;;;;;;;24.70;6.50;;;;;;;17.87;93.73;98617.33;105958;1274;22697;-68
2022/08/25 03:13:49;;;;;;;20.50;6.50;;;;;;;17.86;93.73;98617.83;105932;1274;25544;-68
2022/08/25 03:16:18;;;;;;;21.50;5.70;;;;;;;17.85;93.85;98618.33;105880;1274;24083;-68
2022/08/25 03:18:45;;;;;;;16.80;6.10;;;;;;;17.85;93.89;98613.58;105960;1275;22503;-68
2022/08/25 03:21:12;;;;;;;21.80;6.60;;;;;;;17.85;94.03;98611.87;105888;1278;22585;-68
2022/08/25 03:23:40;;;;;;;21.40;6.60;;;;;;;17.86;94.20;98614.36;105870;1275;22562;-68
2022/08/25 03:28:54;;;;;;;21.80;6.60;;;;;;;17.88;94.50;98607.84;105894;1274;25336;-68
2022/08/25 03:31:23;;;;;;;26.20;6.90;;;;;;;17.89;94.50;98613.73;106005;1274;26689;-68
2022/08/25 03:33:50;;;;;;;25.50;7.00;;;;;;;17.91;94.47;98611.63;105966;1274;23905;-68
2022/08/25 03:36:17;;;;;;;18.00;6.30;;;;;;;17.90;94.45;98610.27;105868;1274;24320;-68
2022/08/25 03:38:44;;;;;;;17.90;6.20;;;;;;;17.91;94.49;98614.39;105894;1275;25499;-68
2022/08/25 03:41:20;;;;;;;15.80;6.10;;;;;;;17.91;94.34;98612.67;105902;1274;22538;-68
2022/08/25 03:43:48;;;;;;;20.20;6.60;;;;;;;17.91;94.38;98610.73;105892;1274;22553;-68
2022/08/25 03:46:18;;;;;;;16.10;6.90;;;;;;;17.91;94.26;98610.07;105950;1274;25467;-68
2022/08/25 03:48:45;;;;;;;17.80;6.00;;;;;;;17.90;94.15;98606.29;105922;1274;22530;-68
2022/08/25 03:51:21;;;;;;;25.00;7.40;;;;;;;17.90;94.17;98604.58;105960;1274;24411;-68
2022/08/25 03:53:48;;;;;;;21.30;6.60;;;;;;;17.88;93.85;98603.11;105912;1275;22564;-68
2022/08/25 03:56:16;;;;;;;14.40;6.30;;;;;;;17.84;93.84;98603.17;105895;1274;25590;-68
2022/08/25 03:58:43;;;;;;;19.80;6.40;;;;;;;17.81;93.96;98606.16;105848;1275;22661;-68
2022/08/25 04:04:50;;;;;;;23.20;6.80;;;;;;;17.79;94.36;98607.83;105895;1274;22691;-68
2022/08/25 04:07:17;;;;;;;16.70;6.30;;;;;;;17.79;94.37;98608.22;105922;1274;22597;-68
2022/08/25 04:09:44;;;;;;;17.80;7.00;;;;;;;17.80;94.44;98605.13;105933;1274;22624;-68
2022/08/25 04:12:11;;;;;;;17.00;6.70;;;;;;;17.80;94.41;98601.55;105906;1274;25414;-68
2022/08/25 04:14:37;;;;;;;20.50;7.10;;;;;;;17.81;94.58;98602.86;105941;1274;22559;-68
2022/08/25 04:17:04;;;;;;;19.10;6.40;;;;;;;17.83;94.58;98599.86;105856;1275;22651;-68
2022/08/25 04:19:34;;;;;;;25.80;6.90;;;;;;;17.86;94.50;98599.64;105893;1275;25238;-68
2022/08/25 04:22:01;;;;;;;19.80;7.30;;;;;;;17.87;94.42;98603.45;105932;1274;22553;-68
2022/08/25 04:24:28;;;;;;;21.80;6.80;;;;;;;17.85;94.36;98599.70;105882;1275;25619;-68
2022/08/25 04:26:55;;;;;;;27.40;7.60;;;;;;;17.85;94.52;98603.10;105892;1274;24280;-68
2022/08/25 04:29:24;;;;;;;21.70;6.70;;;;;;;17.86;94.61;98609.30;105905;1274;24255;-68
2022/08/25 04:31:53;;;;;;;17.70;6.60;;;;;;;17.89;94.70;98607.95;105889;1274;22538;-68
2022/08/25 04:34:24;;;;;;;23.90;6.60;;;;;;;17.92;94.73;98610.56;105936;1274;22819;-68
2022/08/25 04:36:50;;;;;;;17.80;6.70;;;;;;;17.96;94.75;98614.44;105890;1274;24394;-68
2022/08/25 04:39:19;;;;;;;19.40;6.40;;;;;;;18.00;94.76;98615.56;105836;1278;24096;-68
2022/08/25 04:41:47;;;;;;;20.70;6.80;;;;;;;18.04;94.78;98617.83;106002;1277;22536;-68
2022/08/25 04:44:15;;;;;;;20.90;6.90;;;;;;;18.09;94.67;98618.45;105865;1274;24300;-69
2022/08/25 04:46:42;;;;;;;17.50;6.80;;;;;;;18.14;94.54;98617.53;105856;1274;23199;-68
2022/08/25 04:49:09;;;;;;;17.70;6.10;;;;;;;18.18;94.40;98614.02;105940;1274;22633;-69
2022/08/25 04:51:38;;;;;;;16.30;5.70;;;;;;;18.22;94.24;98612.54;106000;1274;24240;-68
2022/08/25 04:54:15;;;;;;;13.30;5.50;;;;;;;18.26;93.99;98611.45;105967;1274;24361;-68
2022/08/25 04:56:43;;;;;;;16.50;6.00;;;;;;;18.29;93.86;98609.05;105905;1274;23926;-68
2022/08/25 04:59:12;;;;;;;21.20;7.20;;;;;;;18.31;93.72;98605.36;105866;1274;22524;-68
2022/08/25 05:01:41;;;;;;;17.80;6.80;;;;;;;18.33;93.67;98603.48;105892;1274;24388;-68
2022/08/25 05:04:10;;;;;;;20.80;7.00;;;;;;;18.38;93.90;98605.42;105951;1277;22567;-68
2022/08/25 05:06:37;;;;;;;22.50;6.20;;;;;;;18.42;93.95;98605.21;105884;1278;22535;-69
2022/08/25 05:09:04;;;;;;;23.20;7.00;;;;;;;18.45;93.66;98603.95;105811;1277;25392;-68
2022/08/25 05:11:31;;;;;;;17.40;6.50;;;;;;;18.48;93.55;98604.87;105889;1277;24218;-68
2022/08/25 05:14:00;;;;;;;16.00;5.90;;;;;;;18.49;93.44;98604.19;105891;1278;25678;-68
2022/08/25 05:16:28;;;;;;;22.50;6.90;;;;;;;18.53;93.48;98600.95;105987;1278;25356;-68
2022/08/25 05:18:55;;;;;;;19.90;7.10;;;;;;;18.56;93.40;98599.80;105871;1276;25751;-69
2022/08/25 05:21:26;;;;;;;18.70;6.40;;;;;;;18.56;93.23;98596.77;105959;1276;22593;-68
2022/08/25 05:23:57;;;;;;;21.40;6.90;;;;;;;18.57;93.32;98598.85;106005;1277;23125;-68
2022/08/25 05:26:27;;;;;;;18.70;6.40;;;;;;;18.60;93.47;98597.55;105885;1277;22560;-68
2022/08/25 05:28:54;;;;;;;21.40;6.70;;;;;;;18.64;93.63;98595.52;105929;1277;22596;-68
2022/08/25 05:31:23;;;;;;;23.20;6.60;;;;;;;18.68;93.83;98589.58;105978;1277;24264;-68
2022/08/25 05:33:51;;;;;;;16.80;7.00;;;;;;;18.75;94.00;98595.15;105943;1278;22542;-68
2022/08/25 05:36:20;;;;;;;19.00;6.10;;;;;;;18.83;94.10;98597.55;106097;1277;22612;-68
2022/08/25 05:38:47;;;;;;;16.10;6.00;;;;;;;18.90;94.01;98596.86;106041;1277;25240;-68
2022/08/25 05:41:17;;;;;;;19.90;6.80;;;;;;;18.98;94.17;98596.05;105991;1277;22542;-68
2022/08/25 05:43:47;;;;;;;18.10;6.50;;;;;;;19.05;94.02;98596.70;105984;1277;22597;-68
2022/08/25 05:46:16;;;;;;;19.10;6.50;;;;;;;19.14;93.99;98596.27;105928;1276;22490;-68
2022/08/25 05:48:43;;;;;;;17.20;5.90;;;;;;;19.21;93.99;98593.84;105904;1277;22711;-68
2022/08/25 05:51:10;;;;;;;19.80;6.10;;;;;;;19.29;93.93;98592.23;105977;1277;23930;-68
2022/08/25 05:53:40;;;;;;;15.00;6.20;;;;;;;19.36;93.80;98591.09;105945;1278;25256;-68
2022/08/25 05:56:08;;;;;;;17.70;6.80;;;;;;;19.43;93.50;98590.74;106026;1277;25399;-68
2022/08/25 05:58:36;;;;;;;20.20;6.90;;;;;;;19.50;93.55;98591.69;105892;1277;22571;-68
2022/08/25 06:03:53;;;;;;;19.50;6.10;;;;;;;19.65;92.96;98590.18;105912;1277;22583;-68
2022/08/25 06:06:21;;;;;;;26.50;6.70;;;;;;;19.70;92.81;98593.07;105893;1277;24305;-68
2022/08/25 06:08:49;;;;;;;24.90;6.40;;;;;;;19.78;92.72;98591.16;105925;1277;25242;-68
2022/08/25 06:11:18;;;;;;;23.10;7.60;;;;;;;19.84;92.54;98593.86;105936;1277;25306;-68
2022/08/25 06:13:45;;;;;;;26.50;6.10;;;;;;;19.92;92.33;98594.52;105912;1277;22900;-68
2022/08/25 06:16:12;;;;;;;24.40;7.10;;;;;;;19.98;92.20;98593.23;105717;1277;24243;-68
2022/08/25 06:18:39;;;;;;;20.20;6.80;;;;;;;20.05;92.08;98598.59;105823;1277;24284;-68
2022/08/25 06:21:08;;;;;;;23.20;6.90;;;;;;;20.09;91.75;98594.92;105849;1277;23963;-68
2022/08/25 06:23:36;;;;;;;16.80;6.20;;;;;;;20.15;91.82;98601.40;105952;1277;22573;-68
2022/08/25 06:26:03;;;;;;;16.60;7.30;;;;;;;20.20;91.72;98597.15;105815;1277;24251;-68
2022/08/25 06:28:30;;;;;;;22.60;6.60;;;;;;;20.26;91.53;98594.49;106069;1274;22537;-69
2022/08/25 06:30:59;;;;;;;19.30;6.50;;;;;;;20.33;91.46;98599.67;106050;1274;22533;-68
2022/08/25 06:33:26;;;;;;;28.10;6.60;;;;;;;20.39;91.38;98596.90;105880;1274;25537;-68
2022/08/25 06:35:55;;;;;;;19.90;5.90;;;;;;;20.45;91.06;98596.46;106096;1274;22531;-69
2022/08/25 06:38:23;;;;;;;21.90;6.10;;;;;;;20.51;90.75;98599.71;105703;1277;22557;-69
2022/08/25 06:40:51;;;;;;;19.50;5.90;;;;;;;20.57;90.70;98604.86;105876;1277;24241;-68
2022/08/25 06:43:19;;;;;;;19.50;5.10;;;;;;;20.63;90.44;98608.89;105877;1277;22647;-68
2022/08/25 06:45:47;;;;;;;22.20;5.50;;;;;;;20.69;90.14;98603.70;105824;1277;22560;-68
2022/08/25 06:48:15;;;;;;;30.50;7.20;;;;;;;20.75;89.96;98603.70;105832;1277;25530;-68
2022/08/25 06:50:42;;;;;;;15.70;5.00;;;;;;;20.81;89.86;98608.94;105194;1274;23252;-67
2022/08/25 06:53:09;;;;;;;16.80;5.10;;;;;;;20.90;89.88;98608.25;106407;1274;24264;-67
2022/08/25 06:55:36;;;;;;;20.80;6.00;;;;;;;21.04;89.95;98608.34;105969;1274;22684;-67
2022/08/25 06:58:03;;;;;;;17.30;5.30;;;;;;;21.19;89.53;98610.83;105853;1277;25401;-67
2022/08/25 07:00:31;;;;;;;22.40;6.10;;;;;;;21.32;89.21;98605.89;105873;1274;22583;-67
2022/08/25 07:03:00;;;;;;;16.30;5.80;;;;;;;21.47;88.76;98609.65;106010;1274;24304;-65
2022/08/25 07:05:28;;;;;;;;;;;;;;;21.61;88.26;98605.12;106001;1274;24256;-65
2022/08/25 07:07:55;;;;;;;25.60;5.80;;;;;;;21.75;87.93;98606.59;105757;1274;22910;-66
2022/08/25 07:10:22;;;;;;;20.00;6.00;;;;;;;21.90;87.35;98603.96;105780;1274;24230;-67
2022/08/25 07:12:50;;;;;;;26.00;5.50;;;;;;;22.06;87.20;98602.21;105945;1274;25326;-66
2022/08/25 07:15:17;;;;;;;19.90;5.10;;;;;;;22.22;86.87;98605.73;105806;1274;24310;-65
2022/08/25 07:17:44;;;;;;;23.00;5.40;;;;;;;22.34;86.37;98605.60;105790;1274;22533;-66
2022/08/25 07:20:12;;;;;;;25.10;5.80;;;;;;;22.46;85.01;98605.06;105734;1274;22555;-66
2022/08/25 07:22:39;;;;;;;22.90;5.50;;;;;;;22.53;83.28;98603.75;105840;1277;24351;-66
2022/08/25 07:25:08;;;;;;;25.50;5.30;;;;;;;22.61;83.08;98605.23;105802;1277;22706;-66
2022/08/25 07:27:36;;;;;;;30.40;6.70;;;;;;;22.72;82.63;98606.42;105658;1277;25320;-66
2022/08/25 07:30:05;;;;;;;28.20;7.10;;;;;;;22.79;81.21;98603.34;105750;1274;25390;-66
2022/08/25 07:32:31;;;;;;;25.40;6.00;;;;;;;22.81;80.80;98606.30;105822;1274;22697;-66
2022/08/25 07:35:14;;;;;;;23.20;5.70;;;;;;;22.92;81.34;98606.41;105797;1274;23075;-66
2022/08/25 07:37:49;;;;;;;21.30;6.10;;;;;;;23.05;80.85;98608.10;105786;1277;24284;-66
2022/08/25 07:40:22;;;;;;;23.70;5.70;;;;;;;23.19;80.51;98609.46;105765;1277;22533;-66
2022/08/25 07:42:52;;;;;;;23.70;6.10;;;;;;;23.30;80.55;98610.56;105826;1277;25334;-66
2022/08/25 07:45:20;;;;;;;16.70;5.50;;;;;;;23.41;80.19;98608.60;105896;1276;25398;-66
2022/08/25 07:47:48;;;;;;;28.70;6.60;;;;;;;23.52;79.98;98610.60;106526;1276;22565;-66
2022/08/25 07:50:16;;;;;;;29.10;5.70;;;;;;;23.60;79.63;98611.62;105929;1275;23939;-68
2022/08/25 07:52:43;;;;;;;22.20;5.50;;;;;;;23.68;78.88;98615.31;105818;1274;23408;-68
2022/08/25 07:55:10;;;;;;;22.30;5.50;;;;;;;23.68;78.62;98612.77;105895;1274;23821;-69
2022/08/25 07:57:41;;;;;;;25.40;5.50;;;;;;;23.68;78.31;98614.05;106043;1274;25397;-68
2022/08/25 08:00:09;;;;;;;23.80;5.10;;;;;;;23.70;77.86;98615.00;105901;1274;23249;-68
2022/08/25 08:02:40;;;;;;;27.70;5.60;;;;;;;23.75;77.33;98613.01;105837;1274;25200;-68
2022/08/25 08:05:08;;;;;;;21.80;5.10;;;;;;;23.87;77.18;98608.94;105889;1277;22708;-68
2022/08/25 08:07:36;;;;;;;36.50;6.20;;;;;;;24.00;77.32;98611.92;105892;1274;22692;-68
2022/08/25 08:10:05;;;;;;;20.80;4.90;;;;;;;24.18;77.08;98609.73;105866;1274;22547;-68
2022/08/25 08:12:33;;;;;;;21.90;5.70;;;;;;;24.30;75.79;98606.41;106106;1274;29913;-68
2022/08/25 08:15:01;;;;;;;28.40;5.70;;;;;;;24.39;75.74;98608.34;106389;1274;24220;-68
2022/08/25 08:17:29;;;;;;;29.60;6.20;;;;;;;24.45;73.83;98607.86;106236;1274;23966;-68
2022/08/25 08:19:56;;;;;;;28.00;5.70;;;;;;;24.46;74.92;98608.15;106030;1274;23258;-67
2022/08/25 08:22:23;;;;;;;25.50;5.80;;;;;;;24.52;74.94;98605.84;105805;1274;22534;-67
2022/08/25 08:24:50;;;;;;;32.40;6.00;;;;;;;24.54;74.18;98605.36;105908;1274;23315;-68
2022/08/25 08:27:17;;;;;;;30.60;6.00;;;;;;;24.58;73.96;98601.26;106071;1274;24466;-68
2022/08/25 08:29:44;;;;;;;23.40;6.10;;;;;;;24.62;73.74;98599.76;105856;1274;24287;-67
2022/08/25 08:32:12;;;;;;;24.20;5.80;;;;;;;24.69;74.03;98599.63;106028;1274;23934;-67
2022/08/25 08:34:40;;;;;;;20.90;5.40;;;;;;;24.76;73.30;98599.23;107022;1274;24078;-68
2022/08/25 08:37:07;;;;;;;25.10;5.70;;;;;;;24.84;73.36;98598.58;106168;1275;24216;-68
2022/08/25 08:39:36;;;;;;;22.80;5.30;;;;;;;24.92;73.10;98600.62;105831;1274;24326;-67
2022/08/25 08:42:18;;;;;;;24.50;6.10;;;;;;;25.00;72.67;98595.23;105872;1274;22833;-67
2022/08/25 08:45:16;;;;;;;30.40;6.10;;;;;;;25.11;72.18;98595.98;105829;1274;25309;-67
2022/08/25 08:47:51;;;;;;;29.50;6.00;;;;;;;25.18;71.69;98600.24;105799;1277;23930;-67
2022/08/25 08:50:36;;;;;;;27.90;6.30;;;;;;;25.22;71.12;98596.63;105805;1277;24264;-66
2022/08/25 08:53:09;;;;;;;25.80;6.20;;;;;;;25.31;71.38;98595.11;105817;1277;25244;-67
2022/08/25 08:55:41;;;;;;;25.80;6.00;;;;;;;25.36;70.75;98594.58;105818;1277;24555;-68
2022/08/25 08:58:21;;;;;;;26.00;5.30;;;;;;;25.42;70.86;98590.83;105833;1277;22537;-67
2022/08/25 09:00:53;;;;;;;32.90;5.60;;;;;;;25.49;69.71;98595.08;105803;1275;22565;-68
2022/08/25 09:03:40;;;;;;;28.10;6.50;;;;;;;25.54;69.65;98594.31;105757;1277;24358;-67
2022/08/25 09:06:13;;;;;;;27.20;6.60;;;;;;;25.57;70.31;98598.17;105695;1277;22543;-67
2022/08/25 09:08:43;;;;;;;25.70;6.20;;;;;;;25.67;69.53;98596.92;106024;1277;22677;-67
2022/08/25 09:11:40;;;;;;;27.70;6.20;;;;;;;25.77;69.99;98596.73;105909;1277;22664;-67
2022/08/25 09:14:21;;;;;;;21.20;6.10;;;;;;;25.91;69.68;98593.34;106042;1274;31486;-68
2022/08/25 09:17:20;;;;;;;29.80;6.10;;;;;;;25.98;68.59;98593.53;105752;1277;25369;-68
2022/08/25 09:20:03;;;;;;;21.80;5.60;;;;;;;26.05;69.19;98593.05;105758;1274;25548;-68
2022/08/25 09:22:46;;;;;;;28.40;6.30;;;;;;;26.14;68.65;98592.17;105847;1274;25347;-68
2022/08/25 09:25:24;;;;;;;29.80;6.70;;;;;;;26.29;69.13;98592.63;105798;1277;25349;-68
2022/08/25 09:28:01;;;;;;;20.50;6.20;;;;;;;26.44;68.17;98589.20;105846;1277;25303;-68
2022/08/25 09:30:41;;;;;;;24.60;6.10;;;;;;;26.58;67.98;98588.96;105797;1277;22865;-68
2022/08/25 09:33:10;;;;;;;27.70;6.50;;;;;;;26.68;66.63;98591.71;105791;1277;22568;-68
2022/08/25 09:35:39;;;;;;;18.90;5.80;;;;;;;26.75;66.49;98588.51;105990;1274;22620;-68
2022/08/25 09:38:11;;;;;;;27.90;6.20;;;;;;;26.79;66.00;98584.86;105911;1274;25365;-68
2022/08/25 09:40:41;;;;;;;32.90;7.40;;;;;;;26.84;66.27;98585.61;105871;1274;25235;-68
2022/08/25 09:43:20;;;;;;;21.60;6.10;;;;;;;26.93;66.31;98577.88;105836;1274;24223;-68
2022/08/25 09:45:56;;;;;;;26.50;5.60;;;;;;;27.05;66.50;98573.48;105967;1277;25363;-68
2022/08/25 09:48:25;;;;;;;23.10;6.00;;;;;;;27.16;65.51;98574.77;106025;1274;24224;-68
2022/08/25 09:50:59;;;;;;;25.00;6.00;;;;;;;27.21;65.53;98571.98;106685;1277;24332;-69
2022/08/25 09:53:28;;;;;;;20.30;5.90;;;;;;;27.31;65.60;98567.17;106725;1274;22636;-69
2022/08/25 09:56:03;;;;;;;22.90;5.50;;;;;;;27.44;65.70;98563.40;106726;1274;23089;-68
2022/08/25 09:58:30;;;;;;;24.20;6.70;;;;;;;27.59;65.25;98562.55;106842;1274;24505;-67
2022/08/25 10:01:18;;;;;;;23.40;5.50;;;;;;;27.73;64.93;98560.53;105875;1274;22531;-67
2022/08/25 10:03:54;;;;;;;23.60;6.50;;;;;;;27.79;62.76;98556.09;105921;1274;25413;-67
2022/08/25 10:06:22;;;;;;;27.60;5.60;;;;;;;27.86;61.81;98560.35;105857;1274;24153;-67
2022/08/25 10:08:49;;;;;;;25.60;6.30;;;;;;;27.93;62.17;98560.87;105945;1274;25458;-67
2022/08/25 10:11:36;;;;;;;23.60;5.90;;;;;;;28.04;61.69;98557.91;105716;1277;25359;-67
2022/08/25 10:14:16;;;;;;;20.70;6.20;;;;;;;28.17;61.59;98557.94;105798;1274;24262;-68
2022/08/25 10:16:47;;;;;;;17.20;5.90;;;;;;;28.24;61.36;98552.89;105858;1274;22642;-68
2022/08/25 10:19:20;;;;;;;25.00;6.10;;;;;;;28.33;61.02;98549.21;106077;1274;23962;-69
2022/08/25 10:22:01;;;;;;;22.40;5.60;;;;;;;28.42;60.84;98547.42;106162;1274;25310;-68
2022/08/25 10:24:28;;;;;;;27.30;6.50;;;;;;;28.49;60.71;98552.16;105882;1274;25398;-68
2022/08/25 10:27:24;;;;;;;21.40;7.10;;;;;;;28.54;60.92;98543.36;106211;1274;23410;-68
2022/08/25 10:30:04;;;;;;;23.60;6.20;;;;;;;28.65;60.89;98542.08;105706;1277;22539;-69
2022/08/25 10:32:37;;;;;;;23.20;6.30;;;;;;;28.73;60.85;98538.70;105882;1277;22551;-69
2022/08/25 10:35:16;;;;;;;25.80;6.80;;;;;;;28.80;59.54;98535.96;105790;1277;22542;-67
2022/08/25 10:37:52;;;;;;;20.20;5.60;;;;;;;28.84;58.83;98530.84;105825;1277;24256;-68
2022/08/25 10:40:43;;;;;;;21.30;5.60;;;;;;;28.90;58.94;98530.59;105817;1277;22560;-68
2022/08/25 10:43:16;;;;;;;23.90;5.40;;;;;;;28.98;58.15;98528.60;105531;1277;22619;-68
2022/08/25 10:45:59;;;;;;;19.30;5.50;;;;;;;29.07;57.79;98528.02;105779;1277;22537;-68
2022/08/25 10:48:42;;;;;;;24.00;5.90;;;;;;;29.18;58.44;98522.63;105789;1276;25384;-68
2022/08/25 10:51:47;;;;;;;25.40;7.50;;;;;;;29.27;57.94;98523.41;105758;1277;22561;-68
2022/08/25 10:54:39;;;;;;;23.70;5.90;;;;;;;29.35;57.96;98520.05;105790;1277;24234;-68
2022/08/25 10:57:38;;;;;;;25.00;5.70;;;;;;;29.45;57.16;98513.36;105815;1277;24230;-68
2022/08/25 11:00:08;;;;;;;25.70;6.10;;;;;;;29.54;57.47;98513.77;105794;1277;24256;-68
2022/08/25 11:03:06;;;;;;;18.00;5.60;;;;;;;29.64;56.88;98508.35;105839;1276;25320;-68
2022/08/25 11:05:46;;;;;;;20.20;6.00;;;;;;;29.78;56.77;98505.10;105775;1277;24276;-68
2022/08/25 11:08:21;;;;;;;17.10;5.40;;;;;;;29.82;55.85;98502.38;105762;1277;22551;-68
2022/08/25 11:10:57;;;;;;;21.20;6.20;;;;;;;29.83;55.44;98502.16;105858;1277;25255;-68
2022/08/25 11:13:30;;;;;;;29.40;5.60;;;;;;;29.86;54.52;98497.00;105550;1277;22851;-68
2022/08/25 11:16:08;;;;;;;24.00;7.40;;;;;;;29.84;55.03;98503.55;105786;1277;23923;-68
2022/08/25 11:18:45;;;;;;;26.40;5.90;;;;;;;29.84;55.39;98497.14;105844;1277;25324;-68
2022/08/25 11:21:19;;;;;;;26.30;6.80;;;;;;;29.91;55.38;98501.52;105814;1277;24328;-68
2022/08/25 11:24:04;;;;;;;28.80;6.30;;;;;;;30.01;54.79;98497.60;105862;1277;23887;-68
2022/08/25 11:26:36;;;;;;;20.80;5.90;;;;;;;30.12;54.35;98492.33;105774;1277;24409;-68
2022/08/25 11:29:16;;;;;;;28.60;7.10;;;;;;;30.21;54.09;98492.80;105776;1277;25426;-68
2022/08/25 11:31:47;;;;;;;24.80;6.10;;;;;;;30.31;54.10;98490.71;105842;1277;25354;-68
2022/08/25 11:34:14;;;;;;;21.80;5.70;;;;;;;30.39;53.42;98488.95;105778;1277;24238;-68
2022/08/25 11:36:49;;;;;;;18.80;6.00;;;;;;;30.38;52.31;98486.94;105770;1277;22563;-68
2022/08/25 11:39:38;;;;;;;22.10;6.00;;;;;;;30.28;52.92;98482.72;105813;1277;22535;-68
2022/08/25 11:42:22;;;;;;;25.00;6.80;;;;;;;30.27;53.30;98481.11;105824;1277;22604;-68
2022/08/25 11:45:15;;;;;;;24.80;6.10;;;;;;;30.36;53.32;98477.82;105805;1277;24357;-69